Norah Head Lighthouse, New South Wales

12:23 AM AEST on May 05, 2015 (GMT +1000)
Woongarrah | | Change Station
CLOSE
Current Station
Personal Weather Station
Location: Woongarrah, NEW SOUTH WALES
Elevation: 95 ft
Nearby Weather Stations

Elev 95 ft 33.25 °S, 151.48 °E | Updated 5 seconds ago

Mostly Cloudy
Mostly Cloudy
59.1 °F
Feels Like 59.1 °F
N
0.0
Wind Variable Wind from West
Gusts 0.0 mph

Today
High -- | Low -- °F
--% Chance of Precip.
Yesterday
High -- | Low -- °F
Precip. -- in
6:29 AM 5:10 PM
Full, 100% visible
Pressure 29.89 in
Visibility 0.1 miles
Clouds Mostly Cloudy 100 ft
Dew Point 58 °F
Humidity 96%
Rainfall 0.00 in
Snow Depth Not available.
UV 0 out of 12
Pollen Not available.
Air Quality Not available.
Flu Activity Not available.
SPECI YSRI 041400Z AUTO 00000KT 0150 // BKN001 14/14 Q1012 RMK AUTO OBSCURATION CODES REMOVED

More Conditions Fewer Conditions

Pressure 29.89 in
Visibility 0.1 miles
Clouds Mostly Cloudy 100 ft
Dew Point 58 °F
Humidity 96%
Rainfall 0.00 in
Snow Depth Not available.
UV 0 out of 12
Pollen Not available.
Air Quality Not available.
Flu Activity Not available.
SPECI YSRI 041400Z AUTO 00000KT 0150 // BKN001 14/14 Q1012 RMK AUTO OBSCURATION CODES REMOVED

More Conditions Fewer Conditions

10-Day Weather Forecast

Almanac

Astronomy

May. 05, 2015 Rise Set
Actual Time
Civil Twilight
Nautical Twilight
Astronomical Twilight
Moon
Length of Visible Light
Length of Day
Tomorrow will be .
, % of the Moon is Illuminated

Today's Extremes

Country Highs Country Lows

Community

WunderPhotos

Upload Photos

1,818,614 photos uploaded!

WunderBlogs® & News

Nearby

Air Quality

  Air Quality AQ Index Pollutant
Not available.

Snow Depth

Station Depth Elevation

Earthquake Activity

City Distance Mag. Time & Date
Minimum magnitude displayed is 2.5.

Coastal Water Temperatures

Place Temperature

Stations

Nearby Weather Stations

Station Location Temp. Windchill Dew Point Humidity Wind Precip. Elev Updated Type